Vaaraa aiheuttavia sääilmiöitä ei ole odotettavissa.    Ei varoituksia

Webkamera Lisätietoa Webcam


Yksityisiä sääasemia lähellä:

Sääasema Juupajoki

Sääasema Orivesi

Sääasema Muurame

Sääasema Jyväskylä

Sääasema Vihtavuori


Löydät sääaseman tiedot myös:

Finland Weather Exchange

European Weather Network

Weather Underground

AWEKAS

Windy.com



Säätiedot lähimmiltä METAR asemilta

   
EFHA - Halli (Fin-Afb), Finland
Etäisyys asemalta: Kaakko 25 km
Päivitetty: 21.08.2019 01:20
Selkeää  
Selkeää  
   Tuuli: Etelälounas 3.6 m/s
Tuuli: Etelälounas 3.6 m/s
Lämpötila: 14°C
Kastepiste: 12°C
Kosteus: 88%
Ilmanpaine: 1018 hPa
Näkyvyys: Enemmän kuin 10 km
Pilvitiedot: Selkeää
EFHA 202220Z AUTO 20007KT CAVOK 14/12 Q1018
EFJY - Jyvaskyla (Mil/Civ), Finland
Etäisyys asemalta: Koillinen 75 km
Päivitetty: 21.08.2019 01:50
Selkeää  
Selkeää  
   Tuuli: Kaakko 2.6 m/s
Tuuli: Kaakko 2.6 m/s
Lämpötila: 9°C
Tuulen hyytävyys: 8°C
Kastepiste: 9°C
Kosteus: 100%
Ilmanpaine: 1018 hPa
Pilvisyys: Selkeää
Näkyvyys: 6 km
Pilvitiedot: Selkeää
EFJY 202250Z AUTO 14005KT 6000 NCD 09/09 Q1018
EFTP - Tampere/Pirkkala, Finland
Etäisyys asemalta: Lounas 81 km
Päivitetty: 21.08.2019 01:50
Vähäistä pilvisyyttä  
Vähäistä pilvisyyttä  
   Tuuli: Etelä 2.6 m/s
Tuuli: Etelä 2.6 m/s
Lämpötila: 14°C
Kastepiste: 12°C
Kosteus: 88%
Ilmanpaine: 1019 hPa
Pilvisyys: Vähäistä pilvisyyttä
Näkyvyys: Enemmän kuin 10 km
Pilvitiedot: Vähäistä pilvisyyttä 213 m
EFTP 202250Z AUTO 17005KT 9999 FEW007 14/12 Q1019
EFSI - Seinajoki-Ilmajoki, Finland
Etäisyys asemalta: Luode 114 km
Päivitetty: 21.08.2019 01:50
Selkeää  
Selkeää  
   Tuuli: Eteläkaakko 2.6 m/s
Tuuli: Eteläkaakko 2.6 m/s
Lämpötila: 13°C
Kastepiste: 12°C
Kosteus: 94%
Ilmanpaine: 1015 hPa
Näkyvyys: Enemmän kuin 10 km
Pilvitiedot: Selkeää
EFSI 202250Z AUTO 16005KT 130V200 CAVOK 13/12 Q1015
EFMI - Mikkeli, Finland
Etäisyys asemalta: Itäkaakko 147 km
Päivitetty: 21.08.2019 01:50
Selkeää  
Selkeää  
   Tuuli: Lounas 1.5 m/s
Tuuli: Lounas 1.5 m/s
Lämpötila: 13°C
Kastepiste: 13°C
Kosteus: 100%
Ilmanpaine: 1019 hPa
Näkyvyys: Enemmän kuin 10 km
Pilvitiedot: Selkeää
EFMI 202250Z AUTO 23003KT CAVOK 13/13 Q1019
EFPO - Pori (Mil/Civ), Finland
Etäisyys asemalta: Länsilounas 154 km
Päivitetty: 21.08.2019 01:50
Vähäistä pilvisyyttä  
Vähäistä pilvisyyttä  
   Tuuli: Eteläkaakko 2.1 m/s
Tuuli: Eteläkaakko 2.1 m/s
Lämpötila: 13°C
Kastepiste: 12°C
Kosteus: 94%
Ilmanpaine: 1017 hPa
Pilvisyys: Vähäistä pilvisyyttä
Näkyvyys: Enemmän kuin 10 km
Pilvitiedot: Vähäistä pilvisyyttä 2743 m
EFPO 202250Z AUTO 16004KT 9999 FEW090/// 13/12 Q1017
EFUT - Utti (Fin-Afb), Finland
Etäisyys asemalta: Kaakko 180 km
Päivitetty: 21.08.2019 01:50
Selkeää  
Selkeää  
   Tuuli: Etelä 2.6 m/s
Tuuli: Etelä 2.6 m/s
Lämpötila: 13°C
Kastepiste: 12°C
Kosteus: 94%
Ilmanpaine: 1021 hPa
Näkyvyys: Enemmän kuin 10 km
Pilvitiedot: Selkeää
EFUT 202250Z AUTO 19005KT CAVOK 13/12 Q1021
EFVA - Vaasa, Finland
Etäisyys asemalta: Luode 180 km
Päivitetty: 21.08.2019 01:50
Selkeää  
Selkeää  
   Tuuli: Etelä 3.1 m/s
Tuuli: Etelä 3.1 m/s
Lämpötila: 13°C
Kastepiste: 12°C
Kosteus: 94%
Ilmanpaine: 1014 hPa
Näkyvyys: Enemmän kuin 10 km
Pilvitiedot: Selkeää
EFVA 202250Z AUTO 19006KT CAVOK 13/12 Q1014
EFHK - Helsinki/Vantaa, Finland
Etäisyys asemalta: Etelä 191 km
Päivitetty: 21.08.2019 01:50
Puolipilvistä  
Puolipilvistä  
   Tuuli: Etelälounas 3.1 m/s
Tuuli: Etelälounas 3.1 m/s
Lämpötila: 16°C
Kastepiste: 14°C
Kosteus: 88%
Ilmanpaine: 1020 hPa
Pilvisyys: Puolipilvistä
Näkyvyys: Enemmän kuin 10 km
Pilvitiedot: Vähäistä pilvisyyttä 427 m,
Puolipilvistä 518 m
EFHK 202250Z 20006KT 9999 FEW014 SCT017 16/14 Q1020 NOSIG

Alkuperäinen skripti  Saratoga-weather.org Sovitettu myös templatelle  Weerstation Leuven

Laitteet joita käytämme:

Sääasema
Davis VP2

Sääasemaohjelma
Cumulus

Sääaseman palvelin
HP ProBook 6460b

Palveluntarjoaja
Radicenter

Davis VP2

Cumulus

HP ProBook 6460b

Radicenter




Flag Counter Cumulus Top Weather Sites